Date,TemperatureHighF,TemperatureAvgF,TemperatureLowF,DewpointHighF,DewpointAvgF,DewpointLowF,HumidityHigh,HumidityAvg,HumidityLow,PressureMaxIn,PressureMinIn,WindSpeedMaxMPH,WindSpeedAvgMPH,GustSpeedMaxMPH,PrecipitationSumIn
2013-3-1,52,46,37,30,27,23,57,48,42,30.17,30.09,23,18,40,0.00
2013-3-2,55,49,41,28,24,21,55,38,27,30.18,29.83,24,12,44,0.00
2013-3-3,46,36,18,29,19,4,85,52,24,29.94,29.60,29,16,47,0.00
2013-3-4,25,16,5,15,11,-1,89,79,60,30.27,29.94,20,10,35,0.00
2013-3-5,27,17,3,18,8,-3,84,68,44,30.20,29.97,13,8,21,0.00
2013-3-6,30,24,18,24,18,14,88,79,63,29.97,29.65,13,8,21,0.00
2013-3-7,41,30,21,23,19,15,95,68,38,30.00,29.73,18,7,29,0.00
2013-3-8,46,30,18,24,18,12,83,62,35,29.99,29.84,5,2,10,0.00
2013-3-9,41,29,18,18,16,13,87,61,34,30.17,29.91,14,5,23,0.00
2013-3-10,46,39,23,20,16,12,75,43,24,30.16,29.97,18,11,32,0.00
2013-3-11,41,30,23,23,21,18,89,70,48,30.25,29.94,20,9,32,0.00
2013-3-12,48,33,21,29,20,11,87,62,44,30.25,29.91,20,10,35,0.00
2013-3-13,59,51,46,29,27,23,49,39,27,30.06,29.94,23,17,46,0.00
2013-3-14,61,54,46,27,25,23,46,33,25,30.08,29.89,22,14,35,0.00
2013-3-15,55,47,34,27,24,20,74,43,25,30.02,29.84,22,13,38,0.00
2013-3-16,50,33,21,29,23,20,94,69,31,30.04,29.60,14,-30,30,0.00
2013-3-17,39,26,12,29,16,6,86,67,36,29.92,29.42,24,14,40,0.00
2013-3-18,36,25,5,14,7,1,83,51,24,29.92,29.72,27,14,40,0.00
2013-3-19,41,26,18,16,9,-1,87,55,17,30.17,29.89,13,6,23,0.00
2013-3-20,57,45,28,34,15,2,65,31,19,30.05,29.46,22,12,40,0.00
2013-3-21,39,36,28,33,12,3,83,39,21,29.83,29.51,23,16,39,0.01
2013-3-22,27,22,16,20,15,4,87,75,51,30.14,29.83,13,9,23,0.00
2013-3-23,30,16,5,11,3,-4,76,58,34,30.21,30.14,10,4,22,0.00
2013-3-24,36,22,10,9,5,0,74,51,22,30.25,30.15,12,3,16,0.00
2013-3-25,45,31,16,12,5,1,65,36,16,30.15,29.95,16,10,24,0.00
2013-3-26,50,35,21,17,14,10,71,44,23,29.95,29.89,10,4,16,0.00
2013-3-27,57,39,23,19,16,14,74,45,21,29.95,29.91,12,6,22,0.00
2013-3-28,59,53,45,32,28,23,59,40,25,30.02,29.95,12,7,22,0.00
2013-3-29,54,46,34,32,27,18,81,49,25,30.12,30.01,15,9,25,0.00
2013-3-30,57,47,34,26,22,16,68,39,21,30.18,30.03,17,11,27,0.00
2013-3-31,52,45,34,24,22,19,62,40,29,30.14,29.96,15,8,24,0.00